Time,TemperatureF,DewpointF,PressureIn,WindDirection,WindDirectionDegrees,WindSpeedMPH,WindSpeedGustMPH,Humidity,HourlyPrecipIn,Conditions,Clouds,dailyrainin,SoftwareType,DateUTC
2013-08-14 00:12:00,44.0,43.0,-100.00,South,181,0.0,0.0,97,0.00,,,0.00,,2013-08-14 05:12:00,
2013-08-14 00:22:00,44.0,43.0,-100.00,South,181,0.0,0.0,97,0.00,,,0.00,,2013-08-14 05:22:00,
2013-08-14 00:32:00,44.0,43.0,-100.00,South,181,0.0,0.0,97,0.00,,,0.00,,2013-08-14 05:32:00,
2013-08-14 01:11:00,43.0,42.0,-100.00,South,182,0.0,0.0,97,0.00,,,0.00,,2013-08-14 06:11:00,
2013-08-14 01:21:00,43.0,42.0,-100.00,South,182,0.0,0.0,97,0.00,,,0.00,,2013-08-14 06:21:00,
2013-08-14 01:31:00,43.0,42.0,-100.00,South,182,0.0,0.0,97,0.00,,,0.00,,2013-08-14 06:31:00,
2013-08-14 02:11:00,42.0,41.0,-100.00,South,176,0.0,0.0,98,0.00,,,0.00,,2013-08-14 07:11:00,
2013-08-14 02:21:00,42.0,41.0,-100.00,South,176,0.0,0.0,98,0.00,,,0.00,,2013-08-14 07:21:00,
2013-08-14 02:31:00,42.0,41.0,-100.00,South,176,0.0,0.0,98,0.00,,,0.00,,2013-08-14 07:31:00,
2013-08-14 03:11:00,42.0,41.0,-100.00,South,181,0.0,0.0,98,0.00,,,0.00,,2013-08-14 08:11:00,
2013-08-14 03:21:00,42.0,41.0,-100.00,South,181,0.0,0.0,98,0.00,,,0.00,,2013-08-14 08:21:00,
2013-08-14 03:31:00,42.0,41.0,-100.00,South,181,0.0,0.0,98,0.00,,,0.00,,2013-08-14 08:31:00,
2013-08-14 04:11:00,41.0,40.0,-100.00,South,188,0.0,0.0,98,0.00,,,0.00,,2013-08-14 09:11:00,
2013-08-14 04:21:00,41.0,40.0,-100.00,South,188,0.0,0.0,98,0.00,,,0.00,,2013-08-14 09:21:00,
2013-08-14 04:33:00,41.0,40.0,-100.00,South,188,0.0,0.0,98,0.00,,,0.00,,2013-08-14 09:33:00,
2013-08-14 05:12:00,40.0,39.0,-100.00,South,183,0.0,0.0,98,0.00,,,0.00,,2013-08-14 10:12:00,
2013-08-14 05:23:00,40.0,39.0,-100.00,South,183,0.0,0.0,98,0.00,,,0.00,,2013-08-14 10:23:00,
2013-08-14 05:32:00,40.0,39.0,-100.00,South,183,0.0,0.0,98,0.00,,,0.00,,2013-08-14 10:32:00,
2013-08-14 06:11:00,41.0,40.0,-100.00,South,184,0.0,0.0,98,0.00,,,0.00,,2013-08-14 11:11:00,
2013-08-14 06:21:00,41.0,40.0,-100.00,South,184,0.0,0.0,98,0.00,,,0.00,,2013-08-14 11:21:00,
2013-08-14 06:32:00,41.0,40.0,-100.00,South,184,0.0,0.0,98,0.00,,,0.00,,2013-08-14 11:32:00,
2013-08-14 07:11:00,40.0,39.0,-100.00,South,179,0.0,0.0,98,0.00,,,0.00,,2013-08-14 12:11:00,
2013-08-14 07:21:00,40.0,39.0,-100.00,South,179,0.0,0.0,98,0.00,,,0.00,,2013-08-14 12:21:00,
2013-08-14 07:31:00,40.0,39.0,-100.00,South,179,0.0,0.0,98,0.00,,,0.00,,2013-08-14 12:31:00,
2013-08-14 08:11:00,46.0,46.0,-100.00,West,260,0.0,0.0,99,0.00,,,0.00,,2013-08-14 13:11:00,
2013-08-14 08:22:00,46.0,46.0,-100.00,West,260,0.0,0.0,99,0.00,,,0.00,,2013-08-14 13:22:00,
2013-08-14 08:31:00,46.0,46.0,-100.00,West,260,0.0,0.0,99,0.00,,,0.00,,2013-08-14 13:31:00,
2013-08-14 09:11:00,50.0,50.0,-100.00,SE,126,0.0,0.0,99,0.00,,,0.00,,2013-08-14 14:11:00,
2013-08-14 09:22:00,50.0,50.0,-100.00,SE,126,0.0,0.0,99,0.00,,,0.00,,2013-08-14 14:22:00,
2013-08-14 09:32:00,50.0,50.0,-100.00,SE,126,0.0,0.0,99,0.00,,,0.00,,2013-08-14 14:32:00,
2013-08-14 10:11:00,56.0,52.0,-100.00,SSE,151,2.0,6.0,85,0.00,,,0.00,,2013-08-14 15:11:00,
2013-08-14 10:22:00,56.0,52.0,-100.00,SSE,151,2.0,6.0,85,0.00,,,0.00,,2013-08-14 15:22:00,
2013-08-14 10:33:00,56.0,52.0,-100.00,SSE,151,2.0,6.0,85,0.00,,,0.00,,2013-08-14 15:33:00,
2013-08-14 11:13:00,61.0,46.0,-100.00,SSE,161,3.0,6.0,57,0.00,,,0.00,,2013-08-14 16:13:00,
2013-08-14 11:28:00,61.0,46.0,-100.00,SSE,161,3.0,6.0,57,0.00,,,0.00,,2013-08-14 16:28:00,
2013-08-14 11:34:00,61.0,46.0,-100.00,SSE,161,3.0,6.0,57,0.00,,,0.00,,2013-08-14 16:34:00,
2013-08-14 12:20:00,65.0,48.0,-100.00,SSW,207,4.0,7.0,55,0.00,,,0.00,,2013-08-14 17:20:00,
2013-08-14 12:29:00,65.0,48.0,-100.00,SSW,207,4.0,7.0,55,0.00,,,0.00,,2013-08-14 17:29:00,
2013-08-14 12:35:00,65.0,48.0,-100.00,SSW,207,4.0,7.0,55,0.00,,,0.00,,2013-08-14 17:35:00,
2013-08-14 12:39:00,70.0,48.0,-100.00,SSW,196,3.0,10.0,45,0.00,,,0.00,,2013-08-14 17:39:00,
2013-08-14 13:28:00,70.0,-99.9,-100.00,SSW,196,3.0,10.0,45,0.00,,,0.00,,2013-08-14 18:28:00,
2013-08-14 13:34:00,70.0,48.0,-100.00,SSW,196,3.0,10.0,45,0.00,,,0.00,,2013-08-14 18:34:00,
2013-08-14 14:35:00,73.0,49.0,-100.00,SSW,212,5.0,11.0,43,0.00,,,0.00,,2013-08-14 19:35:00,
2013-08-14 15:12:00,72.0,49.0,-100.00,SW,235,3.0,10.0,44,0.00,,,0.00,,2013-08-14 20:12:00,
2013-08-14 15:34:00,72.0,49.0,-100.00,SW,235,3.0,10.0,44,0.00,,,0.00,,2013-08-14 20:34:00,
2013-08-14 16:13:00,75.0,50.0,-100.00,SSW,211,5.0,12.0,42,0.00,,,0.00,,2013-08-14 21:13:00,
2013-08-14 16:24:00,75.0,50.0,-100.00,SSW,211,5.0,12.0,42,0.00,,,0.00,,2013-08-14 21:24:00,
2013-08-14 16:34:00,75.0,50.0,-100.00,SSW,211,5.0,12.0,42,0.00,,,0.00,,2013-08-14 21:34:00,
2013-08-14 17:13:00,76.0,49.0,-100.00,SSW,211,4.0,9.0,39,0.00,,,0.00,,2013-08-14 22:13:00,
2013-08-14 17:23:00,76.0,49.0,-100.00,SSW,211,4.0,9.0,39,0.00,,,0.00,,2013-08-14 22:23:00,
2013-08-14 17:35:00,76.0,49.0,-100.00,SSW,211,4.0,9.0,39,0.00,,,0.00,,2013-08-14 22:35:00,
2013-08-14 18:13:00,73.0,48.0,-100.00,SSW,211,2.0,11.0,41,0.00,,,0.00,,2013-08-14 23:13:00,
2013-08-14 18:25:00,73.0,48.0,-100.00,SSW,211,2.0,11.0,41,0.00,,,0.00,,2013-08-14 23:25:00,
2013-08-14 18:37:00,73.0,48.0,-100.00,SSW,211,2.0,11.0,41,0.00,,,0.00,,2013-08-14 23:37:00,
2013-08-14 20:16:00,65.0,47.0,-100.00,SSW,192,2.0,5.0,53,0.00,,,0.00,,2013-08-15 01:16:00,
2013-08-14 20:22:00,65.0,47.0,-100.00,SSW,192,2.0,5.0,53,0.00,,,0.00,,2013-08-15 01:22:00,
2013-08-14 20:32:00,65.0,47.0,-100.00,SSW,192,2.0,5.0,53,0.00,,,0.00,,2013-08-15 01:32:00,
2013-08-14 21:21:00,56.0,51.0,-100.00,South,181,2.0,3.0,82,0.00,,,0.00,,2013-08-15 02:21:00,
2013-08-14 21:31:00,56.0,51.0,-100.00,South,181,2.0,3.0,82,0.00,,,0.00,,2013-08-15 02:31:00,
2013-08-14 22:11:00,52.0,49.0,-100.00,South,187,3.0,3.0,91,0.00,,,0.00,,2013-08-15 03:11:00,
2013-08-14 22:22:00,52.0,49.0,-100.00,South,187,3.0,3.0,91,0.00,,,0.00,,2013-08-15 03:22:00,
2013-08-14 22:33:00,52.0,49.0,-100.00,South,187,3.0,3.0,91,0.00,,,0.00,,2013-08-15 03:33:00,
2013-08-14 23:12:00,52.0,51.0,-100.00,South,185,2.0,3.0,96,0.00,,,0.00,,2013-08-15 04:12:00,
2013-08-14 23:23:00,52.0,51.0,-100.00,South,185,2.0,3.0,96,0.00,,,0.00,,2013-08-15 04:23:00,
2013-08-14 23:32:00,52.0,51.0,-100.00,South,185,2.0,3.0,96,0.00,,,0.00,,2013-08-15 04:32:00,